createdAt,value
2019-06-01T00:02:35.599Z,1.2
2019-06-01T00:04:45.363Z,1.2
2019-06-01T00:06:45.168Z,1.2
2019-06-01T00:08:45.215Z,2.4
2019-06-01T00:10:34.787Z,3.7
2019-06-01T00:12:36.176Z,1.2
2019-06-01T00:14:35.745Z,0
2019-06-01T00:16:36.395Z,0
2019-06-01T00:18:36.998Z,1.2
2019-06-01T00:20:36.652Z,1.2
2019-06-01T00:22:36.140Z,0
2019-06-01T00:24:35.791Z,2.4
2019-06-01T00:26:36.350Z,2.4
2019-06-01T00:28:36.875Z,1.2
2019-06-01T00:30:36.448Z,3.7
2019-06-01T00:32:35.867Z,1.2
2019-06-01T00:34:36.565Z,1.2
2019-06-01T00:36:37.199Z,1.2
2019-06-01T00:38:36.796Z,1.2
2019-06-01T00:40:36.462Z,1.2
2019-06-01T00:42:35.833Z,2.4
2019-06-01T00:44:36.544Z,1.2
2019-06-01T00:46:36.118Z,1.2
2019-06-01T00:48:35.698Z,3.7
2019-06-01T00:50:36.336Z,2.4
2019-06-01T00:52:36.876Z,2.4
2019-06-01T00:54:36.516Z,1.2
2019-06-01T00:56:36.125Z,1.2
2019-06-01T00:58:36.594Z,1.2
2019-06-01T01:00:51.347Z,0
2019-06-01T01:02:35.631Z,0
2019-06-01T01:04:36.268Z,1.2
2019-06-01T01:06:36.820Z,1.2
2019-06-01T01:08:36.410Z,1.2
2019-06-01T01:10:37.046Z,0
2019-06-01T01:12:35.539Z,0
2019-06-01T01:14:36.037Z,0
2019-06-01T01:16:37.122Z,0
2019-06-01T01:18:36.641Z,0
2019-06-01T01:20:37.267Z,1.2
2019-06-01T01:22:35.825Z,1.2
2019-06-01T01:24:36.422Z,0
2019-06-01T01:26:37.058Z,0
2019-06-01T01:28:36.586Z,0
2019-06-01T01:30:37.289Z,0
2019-06-01T01:32:36.286Z,0
2019-06-01T01:34:35.929Z,1.2
2019-06-01T01:36:35.531Z,1.2
2019-06-01T01:38:36.390Z,1.2
2019-06-01T01:40:35.980Z,1.2
2019-06-01T01:42:36.434Z,1.2
2019-06-01T01:44:35.908Z,0
2019-06-01T01:46:36.427Z,0
2019-06-01T01:48:36.411Z,0
2019-06-01T01:52:35.397Z,3.7
2019-06-01T01:54:34.879Z,2.4
2019-06-01T01:56:37.313Z,1.2
2019-06-01T01:58:36.821Z,1.2
2019-06-01T02:00:36.580Z,2.4
2019-06-01T02:02:35.957Z,2.4
2019-06-01T02:04:42.950Z,2.4
2019-06-01T02:06:46.320Z,2.4
2019-06-01T02:08:44.884Z,2.4
2019-06-01T02:10:36.477Z,2.4
2019-06-01T02:12:35.973Z,2.4
2019-06-01T02:14:36.399Z,1.2
2019-06-01T02:16:37.025Z,1.2
2019-06-01T02:18:36.567Z,1.2
2019-06-01T02:20:37.156Z,1.2
2019-06-01T02:22:36.609Z,1.2
2019-06-01T02:24:36.099Z,2.4
2019-06-01T02:26:36.744Z,2.4
2019-06-01T02:28:36.322Z,1.2
2019-06-01T02:30:36.847Z,1.2
2019-06-01T02:32:36.392Z,1.2
2019-06-01T02:34:35.989Z,2.4
2019-06-01T02:36:36.632Z,2.4
2019-06-01T02:38:37.202Z,1.2
2019-06-01T02:40:36.891Z,2.4
2019-06-01T02:42:36.457Z,2.4
2019-06-01T02:44:36.057Z,1.2
2019-06-01T02:46:37.042Z,1.2
2019-06-01T02:48:36.494Z,3.7
2019-06-01T02:50:37.575Z,2.4
2019-06-01T02:52:36.009Z,2.4
2019-06-01T02:54:36.475Z,2.4
2019-06-01T02:56:37.045Z,2.4
2019-06-01T02:58:36.453Z,2.4
2019-06-01T03:00:37.036Z,2.4
2019-06-01T03:02:36.478Z,2.4
2019-06-01T03:04:36.103Z,2.4
2019-06-01T03:06:35.639Z,2.4
2019-06-01T03:08:36.233Z,2.4
2019-06-01T03:10:35.756Z,2.4
2019-06-01T03:12:36.290Z,2.4
2019-06-01T03:14:36.744Z,4.9
2019-06-01T03:16:40.801Z,4.9
2019-06-01T03:18:36.334Z,2.4
2019-06-01T03:20:35.949Z,2.4
2019-06-01T03:22:35.410Z,2.4
2019-06-01T03:24:35.861Z,2.4
2019-06-01T03:26:36.380Z,2.4
2019-06-01T03:28:36.886Z,2.4
2019-06-01T03:30:36.504Z,2.4
2019-06-01T03:32:38.335Z,2.4
2019-06-01T03:34:35.782Z,3.7
2019-06-01T03:36:36.626Z,3.7
2019-06-01T03:38:36.067Z,2.4
2019-06-01T03:40:35.527Z,1.2
2019-06-01T03:42:36.926Z,1.2
2019-06-01T03:44:36.382Z,2.4
2019-06-01T03:46:35.918Z,2.4
2019-06-01T03:48:36.400Z,2.4
2019-06-01T03:50:35.955Z,3.7
2019-06-01T03:52:36.423Z,3.7
2019-06-01T03:54:36.881Z,2.4
2019-06-01T03:56:36.514Z,2.4
2019-06-01T03:58:36.020Z,2.4
2019-06-01T04:02:35.783Z,2.4
2019-06-01T04:04:36.249Z,2.4
2019-06-01T04:06:36.832Z,2.4
2019-06-01T04:08:36.349Z,1.2
2019-06-01T04:10:37.028Z,2.4
2019-06-01T04:12:36.475Z,2.4
2019-06-01T04:14:36.917Z,2.4
2019-06-01T04:16:36.459Z,2.4
2019-06-01T04:18:35.961Z,1.2
2019-06-01T04:20:36.638Z,2.4
2019-06-01T04:22:36.037Z,2.4
2019-06-01T04:24:35.406Z,2.4
2019-06-01T04:26:36.957Z,2.4
2019-06-01T04:28:36.448Z,3.7
2019-06-01T04:30:37.064Z,3.7
2019-06-01T04:32:51.092Z,3.7
2019-06-01T04:34:36.836Z,3.7
2019-06-01T04:36:36.488Z,3.7
2019-06-01T04:38:36.026Z,3.7
2019-06-01T04:40:36.646Z,2.4
2019-06-01T04:42:36.179Z,2.4
2019-06-01T04:44:36.020Z,3.7
2019-06-01T04:46:36.607Z,3.7
2019-06-01T04:48:36.396Z,2.4
2019-06-01T04:50:36.921Z,3.7
2019-06-01T04:52:36.438Z,3.7
2019-06-01T04:54:35.791Z,3.7
2019-06-01T04:56:36.379Z,3.7
2019-06-01T04:58:36.721Z,3.7
2019-06-01T05:02:36.512Z,2.4
2019-06-01T05:04:35.847Z,2.4
2019-06-01T05:06:36.450Z,2.4
2019-06-01T05:08:35.919Z,3.7
2019-06-01T05:10:35.508Z,3.7
2019-06-01T05:12:36.953Z,3.7
2019-06-01T05:14:36.273Z,2.4
2019-06-01T05:16:35.818Z,2.4
2019-06-01T05:18:36.342Z,3.7
2019-06-01T05:20:35.970Z,3.7
2019-06-01T05:22:36.386Z,3.7
2019-06-01T05:24:36.748Z,2.4
2019-06-01T05:26:36.297Z,2.4
2019-06-01T05:28:36.797Z,1.2
2019-06-01T05:30:36.422Z,3.7
2019-06-01T05:32:35.978Z,3.7
2019-06-01T05:34:36.462Z,3.7
2019-06-01T05:36:36.057Z,3.7
2019-06-01T05:38:35.522Z,2.4
2019-06-01T05:40:36.612Z,3.7
2019-06-01T05:42:36.041Z,3.7
2019-06-01T05:44:36.382Z,2.4
2019-06-01T05:46:36.018Z,2.4
2019-06-01T05:48:35.582Z,2.4
2019-06-01T05:50:36.170Z,3.7
2019-06-01T05:52:36.580Z,3.7
2019-06-01T05:54:35.889Z,3.7
2019-06-01T05:56:37.056Z,3.7
2019-06-01T05:58:35.038Z,3.7
2019-06-01T06:00:36.625Z,2.4
2019-06-01T06:02:36.105Z,2.4
2019-06-01T06:04:36.522Z,2.4
2019-06-01T06:06:36.082Z,2.4
2019-06-01T06:08:35.619Z,3.7
2019-06-01T06:10:36.121Z,2.4
2019-06-01T06:12:36.565Z,2.4
2019-06-01T06:14:35.994Z,3.7
2019-06-01T06:16:36.551Z,2.4
2019-06-01T06:18:36.098Z,3.7
2019-06-01T06:20:36.639Z,4.9
2019-06-01T06:22:37.044Z,4.9
2019-06-01T06:24:36.494Z,2.4
2019-06-01T06:26:36.086Z,2.4
2019-06-01T06:28:35.695Z,2.4
2019-06-01T06:30:36.398Z,2.4
2019-06-01T06:32:36.983Z,2.4
2019-06-01T06:34:36.469Z,3.7
2019-06-01T06:36:36.158Z,3.7
2019-06-01T06:38:35.550Z,6.1
2019-06-01T06:40:36.136Z,3.7
2019-06-01T06:42:36.675Z,3.7
2019-06-01T06:44:36.365Z,4.9
2019-06-01T06:46:36.013Z,4.9
2019-06-01T06:48:36.522Z,4.9
2019-06-01T06:50:36.245Z,3.7
2019-06-01T06:52:36.728Z,3.7
2019-06-01T06:54:37.203Z,3.7
2019-06-01T06:56:35.865Z,3.7
2019-06-01T06:58:36.901Z,3.7
2019-06-01T07:02:33.938Z,2.4
2019-06-01T07:04:36.257Z,2.4
2019-06-01T07:06:36.838Z,2.4
2019-06-01T07:08:36.288Z,2.4
2019-06-01T07:10:36.914Z,2.4
2019-06-01T07:12:36.413Z,3.7
2019-06-01T07:14:35.955Z,3.7
2019-06-01T07:16:36.531Z,1.2
2019-06-01T07:18:36.153Z,6.1
2019-06-01T07:20:37.095Z,4.9
2019-06-01T07:22:35.640Z,2.4
2019-06-01T07:24:36.274Z,2.4
2019-06-01T07:26:36.893Z,6.1
2019-06-01T07:28:36.504Z,3.7
2019-06-01T07:30:51.329Z,4.9
2019-06-01T07:32:36.626Z,4.9
2019-06-01T07:34:43.567Z,4.9
2019-06-01T07:36:36.646Z,4.9
2019-06-01T07:38:36.279Z,1.2
2019-06-01T07:40:37.080Z,3.7
2019-06-01T07:42:36.618Z,2.4
2019-06-01T07:44:36.198Z,2.4
2019-06-01T07:46:37.008Z,1.2
2019-06-01T07:48:36.536Z,1.2
2019-06-01T07:50:37.145Z,2.4
2019-06-01T07:52:36.691Z,4.9
2019-06-01T07:54:36.257Z,4.9
2019-06-01T07:56:35.944Z,4.9
2019-06-01T07:58:36.491Z,6.1
2019-06-01T08:02:36.314Z,3.7
2019-06-01T08:04:55.401Z,3.7
2019-06-01T08:06:39.370Z,2.4
2019-06-01T08:08:35.978Z,3.7
2019-06-01T08:10:36.661Z,1.2
2019-06-01T08:12:36.265Z,2.4
2019-06-01T08:14:36.787Z,2.4
2019-06-01T08:16:36.439Z,2.4
2019-06-01T08:18:36.041Z,3.7
2019-06-01T08:20:36.674Z,1.2
2019-06-01T08:22:36.131Z,1.2
2019-06-01T08:24:35.534Z,1.2
2019-06-01T08:26:36.158Z,2.4
2019-06-01T08:28:36.805Z,6.1
2019-06-01T08:30:36.387Z,2.4
2019-06-01T08:32:35.930Z,3.7
2019-06-01T08:34:36.347Z,3.7
2019-06-01T08:36:36.095Z,4.9
2019-06-01T08:38:35.555Z,3.7
2019-06-01T08:40:36.204Z,2.4
2019-06-01T08:42:36.640Z,4.9
2019-06-01T08:44:36.147Z,4.9
2019-06-01T08:46:35.873Z,3.7
2019-06-01T08:48:36.312Z,6.1
2019-06-01T08:50:35.966Z,4.9
2019-06-01T08:52:36.393Z,4.9
2019-06-01T08:54:36.706Z,4.9
2019-06-01T08:56:36.316Z,7.3
2019-06-01T08:58:35.757Z,6.1
2019-06-01T09:00:36.493Z,4.9
2019-06-01T09:02:36.945Z,4.9
2019-06-01T09:04:36.362Z,4.9
2019-06-01T09:06:36.130Z,6.1
2019-06-01T09:08:36.596Z,4.9
2019-06-01T09:11:23.448Z,6.1
2019-06-01T09:12:36.076Z,6.1
2019-06-01T09:14:36.124Z,6.1
2019-06-01T09:16:36.645Z,4.9
2019-06-01T09:18:36.382Z,4.9
2019-06-01T09:20:39.439Z,4.9
2019-06-01T09:22:36.296Z,7.3
2019-06-01T09:24:36.803Z,7.3
2019-06-01T09:26:36.647Z,3.7
2019-06-01T09:28:36.986Z,3.7
2019-06-01T09:30:37.062Z,7.3
2019-06-01T09:32:37.287Z,3.7
2019-06-01T09:34:37.141Z,3.7
2019-06-01T09:36:37.126Z,6.1
2019-06-01T09:38:38.168Z,3.7
2019-06-01T09:52:38.951Z,6.1
2019-06-01T09:54:38.586Z,7.3
2019-06-01T09:56:40.418Z,3.7
2019-06-01T09:58:39.005Z,6.1
2019-06-01T10:00:44.544Z,6.1
2019-06-01T10:02:38.440Z,3.7
2019-06-01T10:04:38.446Z,3.7
2019-06-01T10:06:37.317Z,6.1
2019-06-01T10:08:38.495Z,3.7
2019-06-01T10:10:38.407Z,3.7
2019-06-01T10:12:38.327Z,6.1
2019-06-01T10:14:39.031Z,6.1
2019-06-01T10:16:39.339Z,6.1
2019-06-01T10:24:37.851Z,4.9
2019-06-01T10:26:38.016Z,4.9
2019-06-01T10:28:38.169Z,6.1
2019-06-01T10:30:36.132Z,6.1
2019-06-01T10:32:37.597Z,7.3
2019-06-01T10:34:37.876Z,7.3
2019-06-01T10:36:36.646Z,4.9
2019-06-01T10:38:38.990Z,4.9
2019-06-01T10:40:37.719Z,4.9
2019-06-01T10:42:40.064Z,8.6
2019-06-01T10:44:46.548Z,8.6
2019-06-01T10:46:38.326Z,6.1
2019-06-01T10:48:38.382Z,4.9
2019-06-01T10:50:40.575Z,4.9
2019-06-01T10:52:40.278Z,3.7
2019-06-01T10:54:37.960Z,3.7
2019-06-01T10:56:38.129Z,6.1
2019-06-01T10:59:01.139Z,4.9
2019-06-01T11:00:52.168Z,4.9
2019-06-01T11:02:39.007Z,2.4
2019-06-01T11:04:39.251Z,2.4
2019-06-01T11:06:49.324Z,6.1
2019-06-01T11:08:39.236Z,2.4
2019-06-01T11:10:37.202Z,2.4
2019-06-01T11:12:37.146Z,4.9
2019-06-01T11:14:38.995Z,4.9
2019-06-01T11:16:39.605Z,6.1
2019-06-01T11:18:39.961Z,6.1
2019-06-01T11:20:37.746Z,6.1
2019-06-01T11:22:37.888Z,4.9
2019-06-01T11:24:37.939Z,4.9
2019-06-01T11:26:37.756Z,8.6
2019-06-01T11:28:40.239Z,8.6
2019-06-01T11:30:38.382Z,8.6
2019-06-01T11:32:45.009Z,4.9
2019-06-01T11:34:40.398Z,4.9
2019-06-01T11:37:06.104Z,4.9
2019-06-01T11:38:38.594Z,6.1
2019-06-01T11:40:38.774Z,6.1
2019-06-01T11:42:40.455Z,6.1
2019-06-01T11:46:36.409Z,6.1
2019-06-01T11:54:37.995Z,6.1
2019-06-01T11:56:37.381Z,2.4
2019-06-01T11:58:37.887Z,3.7
2019-06-01T12:02:37.959Z,3.7
2019-06-01T12:04:38.179Z,3.7
2019-06-01T12:06:34.085Z,6.1
2019-06-01T12:08:38.365Z,2.4
2019-06-01T12:10:38.551Z,2.4
2019-06-01T12:12:38.449Z,3.7
2019-06-01T12:14:38.707Z,3.7
2019-06-01T12:16:38.551Z,3.7
2019-06-01T12:18:38.375Z,4.9
2019-06-01T12:20:38.302Z,4.9
2019-06-01T12:22:35.123Z,4.9
2019-06-01T12:24:38.765Z,4.9
2019-06-01T12:26:37.759Z,6.1
2019-06-01T12:28:39.211Z,2.4
2019-06-01T12:30:38.218Z,2.4
2019-06-01T12:32:39.725Z,4.9
2019-06-01T12:34:37.960Z,4.9
2019-06-01T12:36:36.445Z,3.7
2019-06-01T12:38:36.131Z,7.3
2019-06-01T12:40:36.731Z,7.3
2019-06-01T12:42:36.636Z,6.1
2019-06-01T12:44:36.185Z,6.1
2019-06-01T12:46:35.543Z,6.1
2019-06-01T12:48:36.203Z,3.7
2019-06-01T12:50:36.672Z,3.7
2019-06-01T13:36:48.551Z,3.7
2019-06-01T13:38:36.385Z,3.7
2019-06-01T13:40:36.032Z,3.7
2019-06-01T13:42:37.273Z,4.9
2019-06-01T13:44:35.742Z,4.9
2019-06-01T13:46:36.165Z,3.7
2019-06-01T13:48:36.712Z,3.7
2019-06-01T13:50:37.212Z,3.7
2019-06-01T13:52:36.721Z,8.6
2019-06-01T13:54:40.961Z,8.6
2019-06-01T13:56:39.140Z,2.4
2019-06-01T13:58:34.941Z,1.2
2019-06-01T14:00:36.405Z,1.2
2019-06-01T14:02:35.754Z,1.2
2019-06-01T14:04:36.154Z,1.2
2019-06-01T14:06:35.647Z,1.2
2019-06-01T14:08:36.016Z,4.9
2019-06-01T14:10:36.437Z,4.9
2019-06-01T14:12:35.930Z,4.9
2019-06-01T14:14:36.336Z,6.1
2019-06-01T14:16:36.077Z,6.1
2019-06-01T14:18:36.263Z,2.4
2019-06-01T14:20:35.666Z,2.4
2019-06-01T14:22:36.131Z,2.4
2019-06-01T14:24:38.623Z,2.4
2019-06-01T14:26:36.051Z,2.4
2019-06-01T14:28:36.543Z,4.9
2019-06-01T14:30:35.890Z,4.9
2019-06-01T14:32:36.247Z,4.9
2019-06-01T14:34:35.732Z,3.7
2019-06-01T14:36:36.364Z,3.7
2019-06-01T14:38:56.536Z,3.7
2019-06-01T14:40:36.051Z,3.7
2019-06-01T14:42:36.523Z,3.7
2019-06-01T14:44:36.005Z,4.9
2019-06-01T14:47:06.515Z,4.9
2019-06-01T14:48:35.935Z,3.7
2019-06-01T14:50:36.279Z,3.7
2019-06-01T14:52:36.123Z,3.7
2019-06-01T14:54:36.681Z,3.7
2019-06-01T14:56:36.140Z,3.7
2019-06-01T14:58:37.253Z,2.4
2019-06-01T15:00:35.579Z,2.4
2019-06-01T15:02:35.979Z,2.4
2019-06-01T15:04:36.389Z,8.6
2019-06-01T15:06:35.824Z,8.6
2019-06-01T15:08:36.349Z,6.1
2019-06-01T15:10:35.750Z,6.1
2019-06-01T15:12:36.287Z,6.1
2019-06-01T15:14:36.131Z,4.9
2019-06-01T15:16:36.894Z,4.9
2019-06-01T15:18:36.323Z,1.2
2019-06-01T15:20:35.710Z,1.2
2019-06-01T15:22:36.080Z,1.2
2019-06-01T15:24:36.573Z,4.9
2019-06-01T15:26:35.982Z,4.9
2019-06-01T15:28:36.451Z,3.7
2019-06-01T15:30:35.832Z,3.7
2019-06-01T15:32:36.436Z,3.7
2019-06-01T15:34:35.962Z,3.7
2019-06-01T15:36:36.419Z,3.7
2019-06-01T15:38:35.956Z,8.6
2019-06-01T15:40:36.405Z,8.6
2019-06-01T15:42:35.806Z,8.6
2019-06-01T15:44:36.160Z,3.7
2019-06-01T15:46:36.616Z,3.7
2019-06-01T15:48:36.171Z,3.7
2019-06-01T15:50:35.586Z,3.7
2019-06-01T15:52:36.024Z,3.7
2019-06-01T15:54:36.401Z,7.3
2019-06-01T15:56:36.212Z,7.3
2019-06-01T15:58:59.847Z,7.3
2019-06-01T16:00:36.542Z,7.3
2019-06-01T16:02:35.888Z,7.3
2019-06-01T16:04:37.041Z,7.3
2019-06-01T16:06:37.472Z,7.3
2019-06-01T16:08:35.902Z,4.9
2019-06-01T16:10:36.208Z,4.9
2019-06-01T16:12:35.557Z,4.9
2019-06-01T16:14:35.910Z,8.6
2019-06-01T16:16:36.446Z,8.6
2019-06-01T16:18:35.971Z,4.9
2019-06-01T16:20:36.490Z,4.9
2019-06-01T16:22:35.873Z,4.9
2019-06-01T16:24:36.370Z,2.4
2019-06-01T16:26:35.823Z,2.4
2019-06-01T16:28:36.258Z,3.7
2019-06-01T16:30:36.169Z,3.7
2019-06-01T16:32:40.515Z,3.7
2019-06-01T16:34:35.926Z,4.9
2019-06-01T16:36:36.498Z,4.9
2019-06-01T16:38:36.071Z,2.4
2019-06-01T16:40:36.455Z,2.4
2019-06-01T16:42:35.791Z,2.4
2019-06-01T16:44:36.176Z,2.4
2019-06-01T16:46:35.596Z,2.4
2019-06-01T16:48:36.065Z,1.2
2019-06-01T16:50:36.436Z,1.2
2019-06-01T16:52:36.070Z,1.2
2019-06-01T16:54:36.550Z,2.4
2019-06-01T16:56:35.997Z,2.4
2019-06-01T16:58:36.407Z,3.7
2019-06-01T17:00:35.884Z,3.7
2019-06-01T17:02:36.379Z,3.7
2019-06-01T17:04:35.742Z,3.7
2019-06-01T17:06:36.087Z,3.7
2019-06-01T17:08:36.579Z,3.7
2019-06-01T17:10:35.926Z,3.7
2019-06-01T17:12:36.425Z,3.7
2019-06-01T17:14:36.430Z,1.2
2019-06-01T17:16:34.305Z,1.2
2019-06-01T17:18:35.701Z,6.1
2019-06-01T17:20:36.105Z,6.1
2019-06-01T17:22:36.569Z,6.1
2019-06-01T17:24:36.025Z,0
2019-06-01T17:26:36.304Z,0
2019-06-01T17:28:35.909Z,2.4
2019-06-01T17:30:36.273Z,2.4
2019-06-01T17:32:36.600Z,2.4
2019-06-01T17:34:36.001Z,1.2
2019-06-01T17:36:36.507Z,1.2
2019-06-01T17:38:35.943Z,1.2
2019-06-01T17:40:43.955Z,1.2
2019-06-01T17:42:36.339Z,1.2
2019-06-01T17:44:35.751Z,0
2019-06-01T17:46:54.669Z,0
2019-06-01T17:48:37.031Z,1.2
2019-06-01T17:50:36.472Z,1.2
2019-06-01T17:52:35.950Z,1.2
2019-06-01T17:54:37.345Z,0
2019-06-01T17:56:35.802Z,0
2019-06-01T17:58:36.239Z,0
2019-06-01T18:00:35.690Z,0
2019-06-01T18:02:36.115Z,0
2019-06-01T18:04:46.029Z,0
2019-06-01T18:06:49.523Z,0
2019-06-01T18:08:45.032Z,0
2019-06-01T18:10:55.789Z,0
2019-06-01T18:12:44.772Z,2.4
2019-06-01T18:14:44.135Z,2.4
2019-06-01T18:16:44.548Z,1.2
2019-06-01T18:18:44.923Z,1.2
2019-06-01T18:20:44.419Z,1.2
2019-06-01T18:22:44.816Z,3.7
2019-06-01T18:24:44.154Z,3.7
2019-06-01T18:26:44.594Z,2.4
2019-06-01T18:28:44.031Z,2.4
2019-06-01T18:30:44.397Z,2.4
2019-06-01T18:32:44.731Z,1.2
2019-06-01T18:34:44.389Z,1.2
2019-06-01T18:36:44.910Z,6.1
2019-06-01T18:38:44.280Z,6.1
2019-06-01T18:40:44.711Z,6.1
2019-06-01T18:42:44.065Z,3.7
2019-06-01T18:44:44.487Z,3.7
2019-06-01T18:46:44.915Z,2.4
2019-06-01T18:48:44.251Z,2.4
2019-06-01T18:50:44.566Z,2.4
2019-06-01T18:52:45.118Z,0
2019-06-01T18:54:44.473Z,0
2019-06-01T18:56:44.806Z,2.4
2019-06-01T18:58:44.227Z,2.4
2019-06-01T19:00:44.603Z,2.4
2019-06-01T19:02:44.955Z,2.4
2019-06-01T19:04:44.577Z,2.4
2019-06-01T19:06:45.732Z,0
2019-06-01T19:08:44.320Z,0
2019-06-01T19:10:45.224Z,0
2019-06-01T19:12:44.694Z,3.7
2019-06-01T19:14:44.012Z,3.7
2019-06-01T19:16:44.379Z,4.9
2019-06-01T19:18:44.819Z,4.9
2019-06-01T19:20:44.235Z,4.9
2019-06-01T19:22:44.703Z,2.4
2019-06-01T19:24:44.115Z,2.4
2019-06-01T19:26:44.560Z,4.9
2019-06-01T19:28:44.985Z,4.9
2019-06-01T19:30:44.437Z,4.9
2019-06-01T19:32:45.003Z,2.4
2019-06-01T19:34:44.596Z,2.4
2019-06-01T19:36:44.862Z,4.9
2019-06-01T19:38:44.485Z,4.9
2019-06-01T19:40:44.834Z,4.9
2019-06-01T19:42:44.227Z,4.9
2019-06-01T19:44:44.594Z,4.9
2019-06-01T19:46:44.978Z,2.4
2019-06-01T19:48:44.479Z,2.4
2019-06-01T19:50:44.910Z,2.4
2019-06-01T19:52:44.296Z,3.7
2019-06-01T19:54:44.645Z,3.7
2019-06-01T19:56:45.743Z,2.4
2019-06-01T19:58:44.085Z,2.4
2019-06-01T20:00:44.680Z,2.4
2019-06-01T20:02:44.227Z,1.2
2019-06-01T20:04:43.529Z,1.2
2019-06-01T20:06:38.248Z,1.2
2019-06-01T20:10:46.161Z,1.2
2019-06-01T20:12:35.607Z,4.9
2019-06-01T20:14:36.199Z,4.9
2019-06-01T20:16:40.925Z,1.2
2019-06-01T20:18:35.728Z,1.2
2019-06-01T20:20:35.924Z,1.2
2019-06-01T20:22:35.253Z,1.2
2019-06-01T20:24:35.772Z,1.2
2019-06-01T20:26:50.069Z,2.4
2019-06-01T20:28:35.607Z,2.4
2019-06-01T20:30:36.241Z,2.4
2019-06-01T20:32:36.047Z,3.7
2019-06-01T20:34:35.367Z,3.7
2019-06-01T20:36:35.823Z,3.7
2019-06-01T20:38:35.330Z,3.7
2019-06-01T20:40:35.763Z,3.7
2019-06-01T20:42:35.177Z,3.7
2019-06-01T20:44:35.694Z,3.7
2019-06-01T20:46:36.088Z,2.4
2019-06-01T20:48:35.520Z,2.4
2019-06-01T20:50:35.842Z,2.4
2019-06-01T20:52:36.294Z,2.4
2019-06-01T20:54:35.766Z,2.4
2019-06-01T20:56:35.315Z,2.4
2019-06-01T20:58:35.605Z,2.4
2019-06-01T21:00:35.985Z,2.4
2019-06-01T21:02:36.085Z,2.4
2019-06-01T21:04:35.522Z,2.4
2019-06-01T21:06:36.116Z,2.4
2019-06-01T21:08:35.512Z,2.4
2019-06-01T21:10:35.949Z,2.4
2019-06-01T21:12:46.739Z,2.4
2019-06-01T21:14:37.208Z,2.4
2019-06-01T21:16:36.294Z,3.7
2019-06-01T21:18:35.873Z,3.7
2019-06-01T21:20:35.297Z,3.7
2019-06-01T21:22:35.691Z,4.9
2019-06-01T21:24:36.159Z,4.9
2019-06-01T21:26:35.577Z,3.7
2019-06-01T21:28:35.997Z,3.7
2019-06-01T21:30:35.450Z,3.7
2019-06-01T21:32:35.975Z,3.7
2019-06-01T21:34:35.885Z,3.7
2019-06-01T21:36:35.236Z,3.7
2019-06-01T21:38:39.115Z,3.7
2019-06-01T21:40:35.509Z,3.7
2019-06-01T21:42:41.109Z,1.2
2019-06-01T21:44:35.933Z,1.2
2019-06-01T21:46:36.213Z,0
2019-06-01T21:48:35.603Z,0
2019-06-01T21:50:36.062Z,0
2019-06-01T21:52:35.531Z,2.4
2019-06-01T21:54:35.983Z,2.4
2019-06-01T21:56:35.330Z,1.2
2019-06-01T21:58:35.644Z,1.2
2019-06-01T22:00:35.971Z,1.2
2019-06-01T22:02:35.264Z,1.2
2019-06-01T22:04:42.698Z,1.2
2019-06-01T22:06:47.237Z,1.2
2019-06-01T22:08:53.638Z,1.2
2019-06-01T22:10:45.248Z,2.4
2019-06-01T22:12:44.778Z,2.4
2019-06-01T22:14:45.071Z,2.4
2019-06-01T22:16:44.875Z,2.4
2019-06-01T22:18:44.728Z,2.4
2019-06-01T22:20:45.051Z,2.4
2019-06-01T22:22:44.489Z,2.4
2019-06-01T22:24:44.856Z,1.2
2019-06-01T22:26:44.307Z,1.2
2019-06-01T22:28:45.224Z,1.2
2019-06-01T22:30:44.568Z,1.2
2019-06-01T22:32:44.966Z,1.2
2019-06-01T22:34:44.602Z,0
2019-06-01T22:36:45.097Z,0
2019-06-01T22:38:44.510Z,0
2019-06-01T22:40:45.138Z,1.2
2019-06-01T22:42:44.570Z,1.2
2019-06-01T22:44:45.144Z,1.2
2019-06-01T22:46:44.732Z,1.2
2019-06-01T22:48:45.102Z,1.2
2019-06-01T22:50:44.568Z,4.9
2019-06-01T22:52:45.148Z,4.9
2019-06-01T22:54:44.568Z,1.2
2019-06-01T22:56:44.974Z,1.2
2019-06-01T22:58:44.585Z,1.2
2019-06-01T23:00:45.198Z,1.2
2019-06-01T23:02:44.535Z,1.2
2019-06-01T23:04:45.179Z,6.1
2019-06-01T23:06:44.595Z,6.1
2019-06-01T23:08:45.034Z,6.1
2019-06-01T23:10:44.710Z,1.2
2019-06-01T23:12:45.114Z,1.2
2019-06-01T23:14:44.438Z,2.4
2019-06-01T23:16:45.274Z,2.4
2019-06-01T23:18:44.648Z,2.4
2019-06-01T23:20:45.046Z,2.4
2019-06-01T23:22:44.659Z,2.4
2019-06-01T23:24:45.766Z,2.4
2019-06-01T23:26:43.593Z,2.4
2019-06-01T23:28:45.139Z,2.4
